Time;durP1;ratioP1;P1;durP2;ratioP2;P2;SDS_P1;SDS_P2;PMS_P1;PMS_P2;Temp;Humidity;BMP_temperature;BMP_pressure;BME280_temperature;BME280_humidity;BME280_pressure;Samples;Min_cycle;Max_cycle;Signal;HPM_P1;HPM_P2
2023/03/05 00:01:09;;;;;;;8.35;1.08;;;2.50;99.90;;;;;;5073992;28;20059;-23
2023/03/05 00:03:35;;;;;;;7.97;0.93;;;2.60;99.90;;;;;;5071888;28;20048;-23
2023/03/05 00:06:01;;;;;;;7.65;0.75;;;2.60;99.90;;;;;;5074465;28;20051;-23
2023/03/05 00:08:28;;;;;;;6.57;0.88;;;2.60;99.90;;;;;;5073905;28;20044;-23
2023/03/05 00:11:03;;;;;;;7.78;0.73;;;2.50;99.90;;;;;;5073813;28;20120;-23
2023/03/05 00:13:29;;;;;;;5.50;0.63;;;2.50;99.90;;;;;;5073869;28;20059;-23
2023/03/05 00:15:55;;;;;;;6.13;1.88;;;2.50;99.90;;;;;;5073812;28;20052;-23
2023/03/05 00:18:21;;;;;;;9.45;1.90;;;2.50;99.90;;;;;;5074067;28;20436;-23
2023/03/05 00:20:47;;;;;;;5.22;1.02;;;2.60;99.90;;;;;;5073738;28;20462;-23
2023/03/05 00:23:13;;;;;;;8.40;1.27;;;2.60;99.90;;;;;;5073721;28;20174;-23
2023/03/05 00:25:39;;;;;;;3.47;0.30;;;2.60;99.90;;;;;;5072740;28;20045;-23
2023/03/05 00:28:06;;;;;;;7.18;1.23;;;2.70;99.90;;;;;;5073944;28;20059;-23
2023/03/05 00:30:33;;;;;;;9.50;0.63;;;2.60;99.90;;;;;;5072949;28;20040;-23
2023/03/05 00:33:00;;;;;;;13.32;1.60;;;2.60;99.90;;;;;;5073652;28;20044;-23
2023/03/05 00:35:26;;;;;;;4.10;0.50;;;2.70;99.90;;;;;;5073234;28;20430;-23
2023/03/05 00:37:52;;;;;;;4.93;0.90;;;2.60;99.90;;;;;;5074130;28;20044;-23
2023/03/05 00:40:18;;;;;;;4.57;0.40;;;2.70;99.90;;;;;;5073270;28;20483;-23
2023/03/05 00:42:44;;;;;;;4.80;1.40;;;2.60;99.90;;;;;;5056019;28;20060;-23
2023/03/05 00:45:10;;;;;;;4.38;0.32;;;2.80;99.90;;;;;;5073602;28;20049;-22
2023/03/05 00:47:36;;;;;;;5.80;1.42;;;2.90;99.90;;;;;;5073495;28;20040;-23
2023/03/05 00:50:03;;;;;;;5.28;0.60;;;3.00;99.90;;;;;;5073189;28;20044;-23
2023/03/05 00:52:29;;;;;;;3.85;0.55;;;2.90;99.90;;;;;;5074021;28;20429;-23
2023/03/05 00:54:55;;;;;;;6.63;0.43;;;2.90;99.90;;;;;;5073426;28;20056;-23
2023/03/05 00:57:21;;;;;;;15.85;1.45;;;2.90;99.90;;;;;;5073431;28;20056;-23
2023/03/05 00:59:47;;;;;;;7.63;1.05;;;2.90;99.90;;;;;;5073414;28;20037;-23
2023/03/05 01:02:13;;;;;;;14.77;0.90;;;2.90;99.90;;;;;;5072187;28;20048;-23
2023/03/05 01:04:40;;;;;;;9.95;0.65;;;2.80;99.90;;;;;;5072404;28;20052;-23
2023/03/05 01:07:06;;;;;;;13.07;1.83;;;2.80;99.90;;;;;;5072263;28;20049;-23
2023/03/05 01:09:32;;;;;;;5.00;0.82;;;2.50;99.90;;;;;;5073236;28;20122;-23
2023/03/05 01:11:58;;;;;;;3.05;0.43;;;2.50;99.90;;;;;;5073262;28;20048;-23
2023/03/05 01:14:26;;;;;;;4.80;0.65;;;2.50;99.90;;;;;;5074140;28;20060;-23
2023/03/05 01:16:52;;;;;;;3.40;0.40;;;2.30;99.90;;;;;;5076140;28;20059;-23
2023/03/05 01:19:18;;;;;;;4.07;0.63;;;2.30;99.90;;;;;;5077147;28;20040;-23
2023/03/05 01:21:44;;;;;;;5.67;0.70;;;2.40;99.90;;;;;;5076056;28;20041;-23
2023/03/05 01:24:10;;;;;;;7.40;1.47;;;2.30;99.90;;;;;;5077006;28;20496;-23
2023/03/05 01:26:36;;;;;;;3.17;0.47;;;2.30;99.90;;;;;;5077515;28;20040;-23
2023/03/05 01:29:01;;;;;;;8.20;0.60;;;2.40;99.90;;;;;;5076814;28;20048;-23
2023/03/05 01:31:27;;;;;;;4.63;0.47;;;2.50;99.90;;;;;;5076851;28;20138;-23
2023/03/05 01:33:54;;;;;;;5.23;0.50;;;2.30;99.90;;;;;;5076833;28;20040;-23
2023/03/05 01:36:22;;;;;;;4.77;0.37;;;2.40;99.90;;;;;;5075582;28;20421;-23
2023/03/05 01:38:48;;;;;;;6.83;0.57;;;2.30;99.90;;;;;;5075455;28;20402;-23
2023/03/05 01:41:15;;;;;;;5.13;0.50;;;2.20;99.90;;;;;;5075486;28;20050;-23
2023/03/05 01:43:42;;;;;;;5.27;0.40;;;2.10;99.90;;;;;;5076360;28;20560;-23
2023/03/05 01:46:23;;;;;;;6.60;0.53;;;2.10;99.90;;;;;;5076611;28;20056;-23
2023/03/05 01:48:54;;;;;;;8.70;0.40;;;2.00;99.90;;;;;;5076152;28;20441;-23
2023/03/05 01:51:23;;;;;;;12.43;0.47;;;1.90;99.90;;;;;;5077127;28;20465;-23
2023/03/05 01:53:49;;;;;;;6.13;0.70;;;1.70;99.90;;;;;;5077263;28;20052;-23
2023/03/05 01:56:16;;;;;;;5.57;0.90;;;1.60;99.90;;;;;;5076395;28;20053;-23
2023/03/05 01:58:42;;;;;;;2.93;0.20;;;1.50;99.90;;;;;;5076340;28;20475;-23
2023/03/05 02:01:08;;;;;;;7.10;1.67;;;1.40;99.90;;;;;;5076576;28;20398;-23
2023/03/05 02:03:36;;;;;;;5.27;0.40;;;1.40;99.90;;;;;;5075324;28;20048;-23
2023/03/05 02:06:01;;;;;;;1.13;0.30;;;1.40;99.90;;;;;;5076220;28;20053;-23
2023/03/05 02:08:27;;;;;;;4.23;0.40;;;1.30;99.90;;;;;;5075231;28;20098;-23
2023/03/05 02:10:56;;;;;;;9.97;0.70;;;1.40;99.90;;;;;;5076125;28;20119;-23
2023/03/05 02:13:24;;;;;;;5.93;0.87;;;1.30;99.90;;;;;;5075860;28;20128;-23
2023/03/05 02:15:52;;;;;;;4.33;0.50;;;1.30;99.90;;;;;;5076048;28;20053;-23
2023/03/05 02:18:19;;;;;;;5.03;0.80;;;1.30;99.90;;;;;;5076834;28;20044;-23
2023/03/05 02:20:55;;;;;;;6.00;0.43;;;1.30;99.90;;;;;;5074704;28;20501;-23
2023/03/05 02:23:23;;;;;;;6.57;0.50;;;1.40;99.90;;;;;;5076178;28;20048;-23
2023/03/05 02:25:50;;;;;;;3.63;0.50;;;1.60;99.90;;;;;;5074781;28;20052;-23
2023/03/05 02:28:27;;;;;;;4.20;0.50;;;1.60;99.90;;;;;;5074735;28;20040;-23
2023/03/05 02:30:53;;;;;;;6.90;0.80;;;1.60;99.90;;;;;;5076600;28;20048;-23
2023/03/05 02:33:19;;;;;;;10.20;0.70;;;1.70;99.90;;;;;;5075983;28;20117;-23
2023/03/05 02:35:45;;;;;;;6.20;0.50;;;1.80;99.90;;;;;;5075649;28;20474;-23
2023/03/05 02:38:13;;;;;;;5.33;0.57;;;1.80;99.90;;;;;;5074436;28;20050;-23
2023/03/05 02:40:39;;;;;;;7.20;0.90;;;1.80;99.90;;;;;;5075596;28;20056;-23
2023/03/05 02:43:05;;;;;;;10.00;0.90;;;1.80;99.90;;;;;;5076378;28;20045;-23
2023/03/05 02:45:30;;;;;;;4.70;0.57;;;1.90;99.90;;;;;;5076361;28;20059;-23
2023/03/05 02:47:56;;;;;;;6.77;0.83;;;1.90;99.90;;;;;;5073911;28;20497;-23
2023/03/05 02:50:22;;;;;;;7.90;1.20;;;1.90;99.90;;;;;;5075017;28;20139;-23
2023/03/05 02:52:48;;;;;;;3.00;0.70;;;1.90;99.90;;;;;;5075047;28;20448;-23
2023/03/05 02:55:14;;;;;;;6.87;1.07;;;2.00;99.90;;;;;;5074359;28;20131;-23
2023/03/05 02:57:40;;;;;;;7.43;1.33;;;1.90;99.90;;;;;;5075502;28;20063;-23
2023/03/05 03:00:06;;;;;;;7.93;1.23;;;1.90;99.90;;;;;;5075200;28;20386;-23
2023/03/05 03:02:32;;;;;;;9.53;0.90;;;1.90;99.90;;;;;;5073915;28;20511;-23
2023/03/05 03:04:58;;;;;;;5.47;1.35;;;1.90;99.90;;;;;;5075039;28;20083;-23
2023/03/05 03:07:24;;;;;;;8.38;1.27;;;1.90;99.90;;;;;;5074408;28;20479;-23
2023/03/05 03:09:50;;;;;;;5.18;0.60;;;1.80;99.90;;;;;;5074936;28;20052;-23
2023/03/05 03:12:16;;;;;;;5.37;1.07;;;1.90;99.90;;;;;;5073836;28;20048;-23
2023/03/05 03:14:44;;;;;;;2.47;0.70;;;1.90;99.90;;;;;;5074733;28;20056;-23
2023/03/05 03:17:13;;;;;;;5.87;0.60;;;1.60;99.90;;;;;;5074886;28;20041;-23
2023/03/05 03:19:39;;;;;;;6.53;1.43;;;1.60;99.90;;;;;;5074826;28;20071;-23
2023/03/05 03:22:06;;;;;;;7.97;0.67;;;1.40;99.90;;;;;;5057193;28;20128;-23
2023/03/05 03:24:33;;;;;;;6.87;0.60;;;1.20;99.90;;;;;;5074656;28;20052;-23
2023/03/05 03:26:59;;;;;;;2.57;0.50;;;1.20;99.90;;;;;;5073954;28;20055;-23
2023/03/05 03:29:25;;;;;;;1.63;0.40;;;1.20;99.90;;;;;;5075139;28;20048;-23
2023/03/05 03:31:51;;;;;;;2.30;0.47;;;1.10;99.90;;;;;;5073434;28;20105;-23
2023/03/05 03:34:17;;;;;;;3.27;0.47;;;1.10;99.90;;;;;;5074522;28;20054;-23
2023/03/05 03:36:44;;;;;;;3.90;0.33;;;1.10;99.90;;;;;;5074253;28;20048;-23
2023/03/05 03:39:13;;;;;;;7.53;0.63;;;1.00;99.90;;;;;;5075227;28;20070;-23
2023/03/05 03:41:44;;;;;;;4.70;0.60;;;1.10;99.90;;;;;;5074589;28;20536;-23
2023/03/05 03:44:11;;;;;;;4.33;0.73;;;1.20;99.90;;;;;;5074301;28;20091;-23
2023/03/05 03:46:39;;;;;;;6.47;0.93;;;1.20;99.90;;;;;;5074262;28;20110;-23
2023/03/05 03:49:07;;;;;;;4.63;0.77;;;1.20;99.90;;;;;;5074165;28;20084;-23
2023/03/05 03:51:33;;;;;;;5.00;1.00;;;1.40;99.90;;;;;;5074438;28;20053;-23
2023/03/05 03:53:59;;;;;;;4.40;0.60;;;1.50;99.90;;;;;;5074974;28;20045;-23
2023/03/05 03:56:25;;;;;;;5.33;0.87;;;1.40;99.90;;;;;;5072983;28;20044;-23
2023/03/05 03:58:52;;;;;;;3.07;0.40;;;1.40;99.90;;;;;;5074093;28;20048;-23
2023/03/05 04:01:19;;;;;;;4.30;0.47;;;1.50;99.90;;;;;;5074646;28;20075;-23
2023/03/05 04:03:45;;;;;;;8.63;0.80;;;1.30;99.90;;;;;;5074010;28;20047;-23
2023/03/05 04:06:12;;;;;;;3.70;0.40;;;1.30;99.90;;;;;;5072711;28;20131;-23
2023/03/05 04:08:38;;;;;;;5.20;0.50;;;1.10;99.90;;;;;;5073931;28;20044;-23
2023/03/05 04:11:04;;;;;;;1.90;0.50;;;1.40;99.90;;;;;;5072650;28;20047;-23
2023/03/05 04:13:30;;;;;;;6.47;0.70;;;1.40;99.90;;;;;;5073645;28;20143;-23
2023/03/05 04:15:57;;;;;;;3.83;0.70;;;1.30;99.90;;;;;;5073872;28;20094;-23
2023/03/05 04:18:23;;;;;;;7.77;0.90;;;1.30;99.90;;;;;;5074358;28;20044;-23
2023/03/05 04:20:49;;;;;;;4.67;1.17;;;1.30;99.90;;;;;;5072596;28;20128;-23
2023/03/05 04:23:16;;;;;;;7.33;1.00;;;1.60;99.90;;;;;;5073431;28;20080;-23
2023/03/05 04:25:42;;;;;;;6.70;1.33;;;1.50;99.90;;;;;;5074303;28;20491;-23
2023/03/05 04:28:08;;;;;;;8.57;1.23;;;1.60;99.90;;;;;;5073697;28;20048;-23
2023/03/05 04:30:34;;;;;;;8.03;1.27;;;1.50;99.90;;;;;;5073916;28;20036;-23
2023/03/05 04:33:00;;;;;;;7.73;0.60;;;1.60;99.90;;;;;;5073726;28;20041;-23
2023/03/05 04:35:26;;;;;;;2.10;0.50;;;1.50;99.90;;;;;;5073681;28;20391;-23
2023/03/05 04:37:52;;;;;;;4.27;0.40;;;1.50;99.90;;;;;;5073624;28;20048;-23
2023/03/05 04:40:18;;;;;;;6.83;0.63;;;1.80;99.90;;;;;;5074413;28;20425;-23
2023/03/05 04:42:44;;;;;;;5.80;0.47;;;1.70;99.90;;;;;;5073618;28;20052;-23
2023/03/05 04:45:10;;;;;;;3.27;1.13;;;1.70;99.90;;;;;;5072439;28;20049;-23
2023/03/05 04:47:36;;;;;;;4.93;0.87;;;1.70;99.90;;;;;;5073551;28;20499;-23
2023/03/05 04:50:04;;;;;;;6.13;0.60;;;1.60;99.90;;;;;;5076376;28;20040;-23
2023/03/05 04:52:30;;;;;;;9.93;1.33;;;1.50;99.90;;;;;;5077936;28;20070;-23
2023/03/05 04:54:56;;;;;;;5.27;0.73;;;1.60;99.90;;;;;;5077620;28;20546;-23
2023/03/05 04:57:21;;;;;;;3.77;0.20;;;1.60;99.90;;;;;;5076621;28;20048;-23
2023/03/05 04:59:47;;;;;;;4.13;0.30;;;1.50;99.90;;;;;;5077527;28;20048;-23
2023/03/05 05:02:13;;;;;;;4.03;0.70;;;1.60;99.90;;;;;;5077472;28;20395;-23
2023/03/05 05:04:39;;;;;;;2.20;0.30;;;1.30;99.90;;;;;;5077984;28;20051;-23
2023/03/05 05:07:06;;;;;;;3.10;0.43;;;1.30;99.90;;;;;;5076332;28;20052;-23
2023/03/05 05:09:32;;;;;;;2.60;0.33;;;1.20;99.90;;;;;;5077205;28;20052;-23
2023/03/05 05:11:58;;;;;;;2.67;0.77;;;1.20;99.90;;;;;;5077346;28;20052;-22
2023/03/05 05:14:24;;;;;;;1.87;0.50;;;1.40;99.90;;;;;;5076795;28;20056;-23
2023/03/05 05:16:50;;;;;;;3.73;0.60;;;1.40;99.90;;;;;;5077177;28;20087;-23
2023/03/05 05:19:16;;;;;;;5.83;0.60;;;1.30;99.90;;;;;;5077164;28;20104;-23
2023/03/05 05:21:41;;;;;;;2.93;0.30;;;1.40;99.90;;;;;;5077894;28;20508;-23
2023/03/05 05:24:07;;;;;;;3.97;0.57;;;1.30;99.90;;;;;;5077646;28;20505;-23
2023/03/05 05:26:33;;;;;;;2.97;0.20;;;1.10;99.90;;;;;;5075791;28;20394;-23
2023/03/05 05:28:59;;;;;;;1.63;0.40;;;1.10;99.90;;;;;;5076827;28;20101;-23
2023/03/05 05:31:25;;;;;;;4.50;0.30;;;1.10;99.90;;;;;;5076890;28;20044;-23
2023/03/05 05:33:51;;;;;;;8.30;0.93;;;0.90;99.90;;;;;;5077664;28;20518;-23
2023/03/05 05:36:21;;;;;;;7.50;0.60;;;1.00;99.90;;;;;;5076843;28;20441;-23
2023/03/05 05:38:47;;;;;;;5.13;0.50;;;0.80;99.90;;;;;;5076791;28;20044;-23
2023/03/05 05:41:15;;;;;;;2.67;0.67;;;0.70;99.90;;;;;;5076539;28;20048;-23
2023/03/05 05:43:41;;;;;;;4.03;0.67;;;0.70;99.90;;;;;;5075033;28;20040;-23
2023/03/05 05:46:13;;;;;;;3.33;0.43;;;0.70;99.90;;;;;;5076587;28;20063;-23
2023/03/05 05:48:38;;;;;;;3.37;0.30;;;0.60;99.90;;;;;;5077468;28;20044;-23
2023/03/05 05:51:17;;;;;;;4.87;0.40;;;0.40;99.90;;;;;;5076487;28;20389;-23
2023/03/05 05:53:43;;;;;;;3.07;0.37;;;0.60;99.90;;;;;;5077076;28;20378;-23
2023/03/05 05:56:10;;;;;;;2.33;0.60;;;0.40;99.90;;;;;;5076454;28;20497;-23
2023/03/05 05:58:38;;;;;;;2.33;0.50;;;0.60;99.90;;;;;;5076445;28;20053;-23
2023/03/05 06:01:27;;;;;;;4.30;0.37;;;0.40;99.90;;;;;;5076366;28;20041;-23
2023/03/05 06:03:54;;;;;;;4.33;0.60;;;0.30;99.90;;;;;;5077182;28;20103;-23
2023/03/05 06:06:22;;;;;;;2.53;0.50;;;0.30;99.90;;;;;;5076224;28;20048;-23
2023/03/05 06:08:48;;;;;;;5.63;0.77;;;0.20;99.90;;;;;;5076174;28;20052;-23
2023/03/05 06:11:14;;;;;;;3.33;0.40;;;0.10;99.90;;;;;;5076419;28;20103;-23
2023/03/05 06:13:40;;;;;;;4.43;0.63;;;0.00;99.90;;;;;;5076460;28;20418;-23
2023/03/05 06:16:11;;;;;;;4.27;0.60;;;0.20;99.90;;;;;;5076067;28;20550;-23
2023/03/05 06:18:37;;;;;;;5.90;0.60;;;0.10;99.90;;;;;;5076123;28;20093;-23
2023/03/05 06:21:06;;;;;;;7.30;2.60;;;0.20;99.90;;;;;;5075976;28;20044;-23
2023/03/05 06:23:32;;;;;;;2.57;0.40;;;0.20;99.90;;;;;;5076008;28;20131;-23
2023/03/05 06:26:00;;;;;;;8.33;0.80;;;0.20;99.90;;;;;;5074683;28;20044;-23
2023/03/05 06:28:27;;;;;;;5.33;0.53;;;0.10;99.90;;;;;;5076428;28;20402;-23
2023/03/05 06:31:05;;;;;;;4.40;0.70;;;0.20;99.90;;;;;;5075757;28;20041;-23
2023/03/05 06:33:32;;;;;;;5.93;1.30;;;-0.10;99.90;;;;;;5076381;28;20424;-23
2023/03/05 06:35:58;;;;;;;9.00;0.67;;;-0.10;99.90;;;;;;5075701;28;20056;-23
2023/03/05 06:38:24;;;;;;;7.00;0.90;;;0.00;99.90;;;;;;5075683;28;20040;-23
2023/03/05 06:40:50;;;;;;;7.50;1.23;;;0.00;99.90;;;;;;5075356;28;20490;-23
2023/03/05 06:43:16;;;;;;;5.60;0.77;;;0.20;99.90;;;;;;5058015;28;20088;-23
2023/03/05 06:45:42;;;;;;;5.33;0.83;;;0.20;99.90;;;;;;5074268;28;20071;-23
2023/03/05 06:48:08;;;;;;;4.67;1.10;;;0.00;99.90;;;;;;5076048;28;20048;-23
2023/03/05 06:50:37;;;;;;;7.07;0.97;;;0.20;99.90;;;;;;5075631;28;20441;-23
2023/03/05 06:53:04;;;;;;;8.67;0.90;;;0.40;99.90;;;;;;5075054;28;20395;-23
2023/03/05 06:55:30;;;;;;;10.93;0.77;;;0.50;99.90;;;;;;5075899;28;20044;-23
2023/03/05 06:57:55;;;;;;;6.27;0.70;;;0.50;99.90;;;;;;5074366;28;20041;-23
2023/03/05 07:00:23;;;;;;;4.77;0.90;;;0.50;99.90;;;;;;5075766;28;20048;-23
2023/03/05 07:02:49;;;;;;;5.70;1.17;;;0.60;99.90;;;;;;5075139;28;20063;-23
2023/03/05 07:05:15;;;;;;;10.17;1.20;;;0.50;99.90;;;;;;5075083;28;20041;-23
2023/03/05 07:07:41;;;;;;;6.60;1.37;;;0.50;99.90;;;;;;5075161;28;20041;-23
2023/03/05 07:10:07;;;;;;;7.47;0.70;;;0.50;99.90;;;;;;5074691;28;20402;-23
2023/03/05 07:12:34;;;;;;;7.17;0.87;;;0.60;99.90;;;;;;5073029;28;20198;-22
2023/03/05 07:15:00;;;;;;;6.13;1.87;;;0.80;99.90;;;;;;5075188;28;20052;-23
2023/03/05 07:17:26;;;;;;;8.03;1.00;;;0.90;99.90;;;;;;5074469;28;20467;-23
2023/03/05 07:19:52;;;;;;;13.53;1.73;;;0.80;99.90;;;;;;5074789;28;20127;-23
2023/03/05 07:22:18;;;;;;;15.73;1.30;;;1.00;99.90;;;;;;5074803;28;20131;-23
2023/03/05 07:24:44;;;;;;;8.43;1.20;;;0.90;99.90;;;;;;5073710;28;20072;-23
2023/03/05 07:27:09;;;;;;;3.63;0.70;;;1.10;99.90;;;;;;5075239;28;20094;-23
2023/03/05 07:29:35;;;;;;;10.03;0.93;;;1.20;99.90;;;;;;5075139;28;20045;-23
2023/03/05 07:32:01;;;;;;;9.23;1.47;;;1.70;99.90;;;;;;5074895;28;20128;-23
2023/03/05 07:34:27;;;;;;;9.60;0.80;;;1.50;99.90;;;;;;5073396;28;20511;-23
2023/03/05 07:36:53;;;;;;;9.77;0.93;;;1.60;99.90;;;;;;5074771;28;20048;-23
2023/03/05 07:39:19;;;;;;;6.53;1.02;;;1.60;99.90;;;;;;5075255;28;20045;-23
2023/03/05 07:41:46;;;;;;;7.73;0.60;;;1.80;99.90;;;;;;5074411;28;20394;-23
2023/03/05 07:44:12;;;;;;;8.07;0.95;;;1.80;99.90;;;;;;5074400;28;20540;-23
2023/03/05 07:46:38;;;;;;;8.10;1.00;;;2.00;99.90;;;;;;5073157;28;20056;-23
2023/03/05 07:49:03;;;;;;;5.07;0.60;;;2.00;99.90;;;;;;5074192;28;20049;-23
2023/03/05 07:51:30;;;;;;;5.07;0.43;;;2.20;99.90;;;;;;5074099;28;20496;-23
2023/03/05 07:53:57;;;;;;;5.30;0.50;;;2.20;99.90;;;;;;5072891;28;20047;-23
2023/03/05 07:56:30;;;;;;;9.77;1.00;;;2.50;99.90;;;;;;5074054;28;20127;-24
2023/03/05 07:58:58;;;;;;;5.97;0.60;;;2.60;99.90;;;;;;5074298;28;20463;-24
2023/03/05 08:01:23;;;;;;;8.85;1.00;;;2.70;99.90;;;;;;5072999;28;20405;-24
2023/03/05 08:03:49;;;;;;;10.00;1.40;;;2.70;99.90;;;;;;5073929;28;20186;-23
2023/03/05 08:06:15;;;;;;;8.10;0.82;;;2.80;99.90;;;;;;5073803;28;20044;-23
2023/03/05 08:08:41;;;;;;;7.90;0.75;;;2.90;99.90;;;;;;5074406;28;20137;-23
2023/03/05 08:11:10;;;;;;;7.80;1.10;;;3.10;99.90;;;;;;5074522;28;20107;-23
2023/03/05 08:13:36;;;;;;;8.32;1.25;;;3.20;99.90;;;;;;5074331;28;20106;-23
2023/03/05 08:16:07;;;;;;;8.68;1.20;;;3.30;99.90;;;;;;5072801;28;20040;-23
2023/03/05 08:18:33;;;;;;;6.60;0.65;;;3.30;99.90;;;;;;5074190;28;20532;-23
2023/03/05 08:20:59;;;;;;;12.38;1.13;;;3.40;99.90;;;;;;5072697;28;20064;-23
2023/03/05 08:23:26;;;;;;;15.15;1.27;;;3.50;99.90;;;;;;5073048;28;20055;-23
2023/03/05 08:25:52;;;;;;;11.52;0.88;;;3.60;99.90;;;;;;5073688;28;20048;-23
2023/03/05 08:28:18;;;;;;;6.35;0.90;;;3.70;99.90;;;;;;5073380;28;20052;-23
2023/03/05 08:30:49;;;;;;;2.70;0.60;;;3.90;99.90;;;;;;5073692;28;20106;-23
2023/03/05 08:33:18;;;;;;;5.95;0.98;;;4.00;99.90;;;;;;5056406;28;20083;-23
2023/03/05 08:35:44;;;;;;;8.02;0.90;;;4.00;99.90;;;;;;5073623;28;20044;-23
2023/03/05 08:38:10;;;;;;;7.82;1.30;;;4.20;99.90;;;;;;5073607;28;20123;-23
2023/03/05 08:40:36;;;;;;;12.52;2.08;;;4.20;99.90;;;;;;5074404;28;20056;-23
2023/03/05 08:43:03;;;;;;;10.43;1.35;;;4.40;99.90;;;;;;5071998;28;20048;-23
2023/03/05 08:45:29;;;;;;;9.98;1.48;;;4.60;99.90;;;;;;5072308;28;20049;-23
2023/03/05 08:47:56;;;;;;;5.22;1.10;;;4.60;99.90;;;;;;5073485;28;20049;-23
2023/03/05 08:50:22;;;;;;;5.32;1.48;;;4.70;99.90;;;;;;5072302;28;20056;-23
2023/03/05 08:52:49;;;;;;;11.45;1.63;;;4.50;99.90;;;;;;5073423;28;20067;-23
2023/03/05 08:55:15;;;;;;;4.75;1.00;;;4.50;99.90;;;;;;5073664;28;20502;-23
2023/03/05 08:57:41;;;;;;;8.65;0.80;;;4.70;99.90;;;;;;5073469;28;20399;-23
2023/03/05 09:00:09;;;;;;;10.77;0.85;;;4.70;99.90;;;;;;5073377;28;20043;-23
2023/03/05 09:02:35;;;;;;;5.43;0.73;;;4.80;99.90;;;;;;5073412;28;20165;-24
2023/03/05 09:05:02;;;;;;;4.65;0.45;;;4.40;99.90;;;;;;5072899;28;20476;-23
2023/03/05 09:07:28;;;;;;;2.53;0.30;;;4.10;99.90;;;;;;5073872;28;20048;-24
2023/03/05 09:09:53;;;;;;;3.92;0.32;;;3.70;99.90;;;;;;5073225;28;20041;-25
2023/03/05 09:12:19;;;;;;;5.85;0.57;;;3.40;99.90;;;;;;5073299;28;20048;-24
2023/03/05 09:14:45;;;;;;;3.25;0.40;;;3.10;99.90;;;;;;5073062;28;20056;-23
2023/03/05 09:17:11;;;;;;;4.00;0.40;;;3.10;99.90;;;;;;5072878;28;20060;-23
2023/03/05 09:19:37;;;;;;;9.50;1.70;;;3.10;99.90;;;;;;5073138;28;20036;-23
2023/03/05 09:22:03;;;;;;;4.65;0.70;;;3.10;99.90;;;;;;5073677;28;20045;-24
2023/03/05 09:24:28;;;;;;;8.20;0.70;;;3.20;99.90;;;;;;5073065;28;20044;-24
2023/03/05 09:26:59;;;;;;;9.13;0.77;;;3.50;99.90;;;;;;5073141;28;20085;-23
2023/03/05 09:29:26;;;;;;;5.93;0.82;;;4.00;99.90;;;;;;5073493;28;20087;-24
2023/03/05 09:31:52;;;;;;;2.65;0.55;;;4.40;99.90;;;;;;5073019;28;20060;-24
2023/03/05 09:34:17;;;;;;;15.05;1.20;;;4.40;99.90;;;;;;5072690;28;20045;-24
2023/03/05 09:36:44;;;;;;;11.88;1.25;;;4.30;99.90;;;;;;5076474;28;20044;-24
2023/03/05 09:39:10;;;;;;;13.02;1.10;;;4.10;99.90;;;;;;5076078;28;20062;-24
2023/03/05 09:42:02;;;;;;;7.13;0.82;;;4.10;99.90;;;;;;5076435;28;20124;-23
2023/03/05 09:44:53;;;;;;;5.30;0.63;;;4.10;99.90;;;;;;5076989;28;20079;-24
2023/03/05 09:47:19;;;;;;;6.50;0.70;;;4.30;99.90;;;;;;5076632;28;20127;-24
2023/03/05 09:50:01;;;;;;;6.10;1.30;;;4.60;99.90;;;;;;5076518;28;20179;-24
2023/03/05 09:52:56;;;;;;;5.72;0.70;;;4.90;99.90;;;;;;5076529;28;20474;-24
2023/03/05 09:55:30;;;;;;;5.55;0.50;;;5.40;99.90;;;;;;5075215;28;20118;-23
2023/03/05 09:58:04;;;;;;;5.95;1.48;;;5.50;99.90;;;;;;5077309;28;20052;-24
2023/03/05 10:00:33;;;;;;;3.78;0.75;;;5.40;99.90;;;;;;5076983;28;20051;-24
2023/03/05 10:03:03;;;;;;;9.25;1.45;;;5.40;99.90;;;;;;5076366;28;20091;-23
2023/03/05 10:05:51;;;;;;;11.90;1.25;;;5.50;99.90;;;;;;5076089;28;20049;-24
2023/03/05 10:08:21;;;;;;;6.28;1.05;;;5.80;99.90;;;;;;5077114;28;20047;-24
2023/03/05 10:10:51;;;;;;;7.25;1.15;;;6.20;99.90;;;;;;5075015;28;20056;-24
2023/03/05 10:13:31;;;;;;;6.32;0.80;;;6.40;99.90;;;;;;5075994;28;20079;-23
2023/03/05 10:16:32;;;;;;;9.20;0.88;;;6.40;99.90;;;;;;5076753;28;20064;-24
2023/03/05 10:19:13;;;;;;;8.77;1.20;;;6.40;99.90;;;;;;5074839;28;20481;-24
2023/03/05 10:21:51;;;;;;;3.22;0.65;;;6.20;99.90;;;;;;5076112;28;20048;-24
2023/03/05 10:24:43;;;;;;;4.68;0.68;;;6.30;99.90;;;;;;5075994;28;20474;-24
2023/03/05 10:27:27;;;;;;;7.18;0.55;;;6.40;99.90;;;;;;5075930;28;20040;-24
2023/03/05 10:29:58;;;;;;;;;;;6.50;99.90;;;;;;5076234;28;20047;-24
2023/03/05 10:32:48;;;;;;;5.45;0.75;;;6.40;99.90;;;;;;5075885;28;20389;-24
2023/03/05 10:35:21;;;;;;;6.20;0.50;;;6.50;99.90;;;;;;5075492;28;20075;-24
2023/03/05 10:37:53;;;;;;;6.88;1.75;;;6.90;99.90;;;;;;5076338;28;20083;-23
2023/03/05 10:40:29;;;;;;;3.78;0.43;;;7.00;99.90;;;;;;5074447;28;20140;-24
2023/03/05 10:43:03;;;;;;;3.47;0.30;;;6.90;99.90;;;;;;5076271;28;20044;-23
2023/03/05 10:45:37;;;;;;;10.45;0.63;;;6.70;99.90;;;;;;5075159;28;20102;-23
2023/03/05 10:48:40;;;;;;;3.85;0.60;;;6.80;99.90;;;;;;5056784;28;20048;-23
2023/03/05 10:51:09;;;;;;;4.03;0.70;;;7.20;99.90;;;;;;5074281;28;20505;-23
2023/03/05 10:53:47;;;;;;;5.63;0.70;;;7.70;99.90;;;;;;5075916;28;20091;-23
2023/03/05 10:56:14;;;;;;;5.45;0.82;;;7.80;99.90;;;;;;5074520;28;20086;-23
2023/03/05 10:58:40;;;;;;;6.47;0.75;;;7.50;99.90;;;;;;5075287;28;20044;-23
2023/03/05 11:01:24;;;;;;;5.65;0.55;;;6.70;99.90;;;;;;5075786;28;20037;-23
2023/03/05 11:03:57;;;;;;;5.05;0.63;;;6.60;99.90;;;;;;5075304;28;20173;-23
2023/03/05 11:06:30;;;;;;;4.05;0.57;;;7.30;99.90;;;;;;5075091;28;20076;-23
2023/03/05 11:09:14;;;;;;;;;;;7.90;99.90;;;;;;5075785;28;20127;-23
2023/03/05 11:11:40;;;;;;;7.32;0.70;;;8.30;99.90;;;;;;5075907;28;19965;-23
2023/03/05 11:14:29;;;;;;;4.95;0.43;;;8.90;99.90;;;;;;5074732;28;20508;-23
2023/03/05 11:16:56;;;;;;;3.38;0.50;;;8.80;99.90;;;;;;5074955;28;20103;-23
2023/03/05 11:19:31;;;;;;;4.10;0.88;;;8.40;99.90;;;;;;5074873;28;20044;-23
2023/03/05 11:22:24;;;;;;;3.22;0.40;;;8.50;99.90;;;;;;5074871;28;20471;-23
2023/03/05 11:25:11;;;;;;;6.65;0.63;;;7.60;99.90;;;;;;5074496;28;20067;-23
2023/03/05 11:27:47;;;;;;;3.83;0.50;;;7.00;99.90;;;;;;5074078;28;20045;-23
2023/03/05 11:30:32;;;;;;;1.83;0.45;;;6.80;99.90;;;;;;5074906;28;20048;-23
2023/03/05 11:33:19;;;;;;;5.97;0.45;;;7.10;99.90;;;;;;5074570;28;20049;-22
2023/03/05 11:35:46;;;;;;;2.70;0.32;;;7.40;99.90;;;;;;5074418;28;20440;-23
2023/03/05 11:38:23;;;;;;;10.40;1.88;;;7.50;99.90;;;;;;5073443;28;20121;-23
2023/03/05 11:40:51;;;;;;;4.07;0.47;;;7.50;99.90;;;;;;5074573;28;20066;-23
2023/03/05 11:43:20;;;;;;;3.58;0.40;;;7.40;99.90;;;;;;5074439;28;20048;-23
2023/03/05 11:45:50;;;;;;;8.13;1.15;;;7.90;99.90;;;;;;5075199;28;20083;-23
2023/03/05 11:48:23;;;;;;;6.00;0.85;;;8.00;99.90;;;;;;5074675;28;20080;-23
2023/03/05 11:50:54;;;;;;;5.18;0.80;;;7.50;99.90;;;;;;5074282;28;20055;-24
2023/03/05 11:53:29;;;;;;;3.72;0.60;;;6.70;99.90;;;;;;5073029;28;20048;-23
2023/03/05 11:56:24;;;;;;;9.25;0.70;;;6.30;99.90;;;;;;5074455;28;20049;-23
2023/03/05 11:59:01;;;;;;;3.17;0.63;;;6.70;99.90;;;;;;5074326;28;20071;-23
2023/03/05 12:01:31;;;;;;;4.15;0.70;;;7.80;99.90;;;;;;5074104;28;20109;-23
2023/03/05 12:03:57;;;;;;;4.78;0.63;;;8.20;99.90;;;;;;5074067;28;20123;-23
2023/03/05 12:06:26;;;;;;;3.05;0.40;;;7.80;99.90;;;;;;5074072;28;20501;-23
2023/03/05 12:08:58;;;;;;;2.25;0.30;;;7.10;99.90;;;;;;5074002;28;20051;-23
2023/03/05 12:11:27;;;;;;;5.10;0.75;;;7.00;99.90;;;;;;5074519;28;20363;-23
2023/03/05 12:14:26;;;;;;;6.20;0.70;;;7.20;99.90;;;;;;5074022;28;20066;-22
2023/03/05 12:17:15;;;;;;;4.10;0.98;;;7.50;99.90;;;;;;5074761;28;20045;-23
2023/03/05 12:19:57;;;;;;;7.82;1.08;;;7.40;99.90;;;;;;5074684;28;20463;-23
2023/03/05 12:22:30;;;;;;;5.45;1.10;;;7.30;99.90;;;;;;5074718;28;20048;-23
2023/03/05 12:25:35;;;;;;;5.07;0.68;;;7.50;99.90;;;;;;5073878;28;20040;-23
2023/03/05 12:28:03;;;;;;;5.25;1.13;;;7.50;99.90;;;;;;5072619;28;20056;-23
2023/03/05 12:30:40;;;;;;;7.85;0.82;;;7.50;99.90;;;;;;5072562;28;20049;-23
2023/03/05 12:33:28;;;;;;;5.03;0.98;;;7.50;99.90;;;;;;5072797;28;20054;-23
2023/03/05 12:36:20;;;;;;;6.78;0.80;;;7.90;99.90;;;;;;5073672;28;20055;-23
2023/03/05 12:38:51;;;;;;;6.00;0.80;;;7.60;99.90;;;;;;5073987;28;20045;-23
2023/03/05 12:41:22;;;;;;;5.00;0.85;;;7.60;99.90;;;;;;5073633;28;20040;-22
2023/03/05 12:44:06;;;;;;;3.20;0.40;;;7.60;99.90;;;;;;5073547;28;20498;-22
2023/03/05 12:46:39;;;;;;;3.35;0.50;;;7.70;99.90;;;;;;5073525;28;20053;-23
2023/03/05 12:49:16;;;;;;;6.07;1.15;;;7.90;99.90;;;;;;5073106;28;20414;-23
2023/03/05 12:51:44;;;;;;;2.80;0.68;;;8.00;99.90;;;;;;5073409;28;20091;-22
2023/03/05 12:54:33;;;;;;;4.95;1.00;;;8.10;99.90;;;;;;5073967;28;20052;-22
2023/03/05 12:57:03;;;;;;;4.88;0.43;;;8.30;99.90;;;;;;5072604;28;20495;-23
2023/03/05 12:59:43;;;;;;;5.15;0.85;;;8.30;99.90;;;;;;5073449;28;20084;-22
2023/03/05 13:02:22;;;;;;;7.43;1.33;;;8.10;99.90;;;;;;5074034;28;20084;-23
2023/03/05 13:04:51;;;;;;;4.90;0.50;;;7.80;99.90;;;;;;5072963;28;20477;-23
2023/03/05 13:07:18;;;;;;;5.35;0.98;;;7.20;99.90;;;;;;5073198;28;20051;-23
2023/03/05 13:09:55;;;;;;;3.53;1.05;;;6.70;99.90;;;;;;5074227;28;20119;-23